Time;durP1;ratioP1;P1;durP2;ratioP2;P2;SDS_P1;SDS_P2;PMS_P1;PMS_P2;Temp;Humidity;BMP_temperature;BMP_pressure;BME280_temperature;BME280_humidity;BME280_pressure;Samples;Min_cycle;Max_cycle;Signal;HPM_P1;HPM_P2
2020/12/22 00:01:10;;;;;;;1.30;0.97;;;9.50;93.70;;;;;;4870202;29;20085;-91
2020/12/22 00:03:36;;;;;;;2.37;1.00;;;9.60;93.90;;;;;;4866713;29;20033;-91
2020/12/22 00:06:02;;;;;;;1.47;1.10;;;9.60;94.00;;;;;;4866845;29;20127;-90
2020/12/22 00:08:27;;;;;;;2.70;1.50;;;9.60;94.10;;;;;;4866625;29;20062;-90
2020/12/22 00:10:53;;;;;;;2.43;1.60;;;9.60;93.70;;;;;;4866703;29;20089;-90
2020/12/22 00:13:18;;;;;;;2.90;1.93;;;9.70;93.70;;;;;;4864930;29;20044;-90
2020/12/22 00:15:44;;;;;;;5.27;2.30;;;9.70;94.40;;;;;;4865645;29;20448;-91
2020/12/22 00:18:11;;;;;;;4.20;2.80;;;9.70;94.00;;;;;;4865971;29;20474;-91
2020/12/22 00:20:37;;;;;;;5.43;2.83;;;9.80;94.10;;;;;;4866351;29;20494;-90
2020/12/22 00:23:03;;;;;;;4.83;2.97;;;9.80;93.80;;;;;;4865463;29;20033;-91
2020/12/22 00:25:28;;;;;;;6.47;3.47;;;9.80;93.70;;;;;;4866122;29;20040;-91
2020/12/22 00:27:54;;;;;;;5.40;3.20;;;9.80;93.80;;;;;;4866423;29;20036;-91
2020/12/22 00:30:20;;;;;;;5.97;3.13;;;9.80;93.90;;;;;;4866071;29;20105;-90
2020/12/22 00:32:45;;;;;;;7.23;3.80;;;9.90;93.70;;;;;;4866228;29;20104;-91
2020/12/22 00:35:11;;;;;;;7.13;3.80;;;9.90;93.90;;;;;;4865221;29;20029;-90
2020/12/22 00:37:36;;;;;;;7.63;3.90;;;9.90;93.90;;;;;;4865819;29;20037;-91
2020/12/22 00:40:03;;;;;;;7.33;3.73;;;9.90;94.40;;;;;;4866301;29;20530;-91
2020/12/22 00:42:32;;;;;;;9.27;4.83;;;9.90;94.00;;;;;;4866194;29;20116;-90
2020/12/22 00:44:58;;;;;;;;;;;10.00;94.20;;;;;;4866374;29;20036;-91
2020/12/22 00:47:24;;;;;;;8.90;4.50;;;10.00;94.30;;;;;;4865974;29;19908;-91
2020/12/22 00:49:49;;;;;;;9.67;5.00;;;10.00;94.00;;;;;;4865167;29;20036;-90
2020/12/22 00:52:15;;;;;;;11.13;5.57;;;10.00;94.00;;;;;;4864668;29;20501;-90
2020/12/22 00:54:41;;;;;;;9.67;5.00;;;10.10;94.60;;;;;;4865822;29;20065;-91
2020/12/22 00:57:07;;;;;;;13.07;6.20;;;10.00;94.10;;;;;;4865296;29;20027;-91
2020/12/22 00:59:35;;;;;;;10.47;5.53;;;10.10;94.20;;;;;;4866251;29;20026;-90
2020/12/22 01:02:05;;;;;;;11.45;5.93;;;10.10;94.20;;;;;;4866092;29;20021;-90
2020/12/22 01:04:31;;;;;;;9.83;5.10;;;10.10;94.30;;;;;;4866390;29;20056;-91
2020/12/22 01:06:56;;;;;;;11.43;5.57;;;10.20;94.10;;;;;;4865888;29;20029;-91
2020/12/22 01:09:22;;;;;;;11.97;5.57;;;10.20;94.50;;;;;;4866559;29;20045;-91
2020/12/22 01:11:48;;;;;;;10.47;5.00;;;10.20;94.60;;;;;;4865151;29;20372;-91
2020/12/22 01:14:13;;;;;;;10.90;5.43;;;10.20;94.20;;;;;;4866057;29;20029;-90
2020/12/22 01:16:39;;;;;;;11.03;5.80;;;10.20;94.40;;;;;;4865583;29;20045;-91
2020/12/22 01:19:04;;;;;;;11.53;5.90;;;10.20;94.40;;;;;;4865740;29;20033;-90
2020/12/22 01:21:30;;;;;;;12.50;6.40;;;10.20;94.50;;;;;;4866130;29;20009;-90
2020/12/22 01:23:55;;;;;;;12.77;6.47;;;10.30;94.90;;;;;;4866095;29;20021;-91
2020/12/22 01:26:23;;;;;;;11.70;6.03;;;10.30;94.40;;;;;;4865259;29;20058;-91
2020/12/22 01:28:49;;;;;;;14.63;7.10;;;10.30;94.60;;;;;;4864291;29;20372;-91
2020/12/22 01:31:28;;;;;;;12.30;6.17;;;10.30;94.50;;;;;;4865299;29;20057;-90
2020/12/22 01:33:55;;;;;;;12.80;6.43;;;10.40;94.30;;;;;;4864536;29;20052;-91
2020/12/22 01:36:25;;;;;;;12.73;6.23;;;10.40;94.70;;;;;;4865352;29;20037;-90
2020/12/22 01:38:50;;;;;;;10.87;5.47;;;10.40;95.00;;;;;;4865651;29;20043;-91
2020/12/22 01:41:17;;;;;;;13.17;6.67;;;10.40;94.70;;;;;;4865784;29;20064;-91
2020/12/22 01:43:43;;;;;;;10.63;5.03;;;10.40;94.60;;;;;;4865655;29;20032;-91
2020/12/22 01:46:09;;;;;;;10.30;5.00;;;10.50;94.70;;;;;;4865751;29;20040;-91
2020/12/22 01:48:37;;;;;;;10.00;4.97;;;10.50;94.70;;;;;;4869240;29;20403;-91
2020/12/22 01:51:03;;;;;;;10.75;5.18;;;10.50;94.50;;;;;;4869402;29;20506;-91
2020/12/22 01:53:29;;;;;;;11.93;5.45;;;10.50;94.50;;;;;;4869282;29;20420;-91
2020/12/22 01:55:55;;;;;;;10.35;5.10;;;10.50;94.40;;;;;;4869589;29;20089;-91
2020/12/22 01:58:20;;;;;;;11.73;5.10;;;10.60;94.40;;;;;;4867927;29;20092;-90
2020/12/22 02:00:46;;;;;;;12.47;5.40;;;10.60;94.40;;;;;;4868916;29;20036;-90
2020/12/22 02:03:14;;;;;;;11.32;5.20;;;10.60;94.60;;;;;;4869167;29;20049;-91
2020/12/22 02:05:40;;;;;;;10.57;5.57;;;10.60;94.50;;;;;;4868615;29;20096;-91
2020/12/22 02:08:05;;;;;;;13.07;6.68;;;10.70;94.60;;;;;;4868361;29;20057;-90
2020/12/22 02:10:31;;;;;;;12.77;6.18;;;10.70;95.00;;;;;;4866883;29;20032;-90
2020/12/22 02:12:58;;;;;;;13.70;6.80;;;10.70;94.50;;;;;;4867145;29;20535;-91
2020/12/22 02:15:24;;;;;;;11.63;6.15;;;10.70;94.50;;;;;;4867330;29;20115;-91
2020/12/22 02:17:49;;;;;;;13.23;7.38;;;10.80;94.60;;;;;;4867756;29;20072;-90
2020/12/22 02:20:15;;;;;;;14.35;7.43;;;10.80;94.70;;;;;;4868545;29;20487;-90
2020/12/22 02:22:41;;;;;;;12.85;7.35;;;10.80;94.70;;;;;;4868260;29;20124;-91
2020/12/22 02:25:17;;;;;;;13.52;7.45;;;10.90;94.70;;;;;;4869264;29;20120;-91
2020/12/22 02:27:43;;;;;;;14.48;8.35;;;10.90;94.90;;;;;;4867843;29;20036;-91
2020/12/22 02:30:09;;;;;;;14.55;7.65;;;10.90;95.00;;;;;;4868050;29;20185;-91
2020/12/22 02:32:35;;;;;;;13.73;7.82;;;11.00;95.00;;;;;;4868102;29;20491;-91
2020/12/22 02:35:01;;;;;;;14.20;8.50;;;10.90;94.80;;;;;;4868340;29;20115;-90
2020/12/22 02:37:27;;;;;;;14.18;8.27;;;11.00;95.10;;;;;;4867636;29;20029;-91
2020/12/22 02:39:53;;;;;;;13.43;7.55;;;11.00;95.10;;;;;;4868035;29;20567;-91
2020/12/22 02:42:18;;;;;;;15.35;8.15;;;11.00;94.60;;;;;;4868394;29;20364;-90
2020/12/22 02:44:44;;;;;;;14.45;8.10;;;11.10;94.70;;;;;;4867606;29;20049;-90
2020/12/22 02:47:13;;;;;;;15.05;8.85;;;11.20;95.70;;;;;;4868356;29;20372;-90
2020/12/22 02:49:39;;;;;;;15.60;9.10;;;11.20;94.90;;;;;;4866979;29;20029;-91
2020/12/22 02:52:05;;;;;;;15.23;9.65;;;11.20;95.00;;;;;;4867071;29;20033;-90
2020/12/22 02:54:31;;;;;;;14.23;8.73;;;11.20;94.80;;;;;;4867674;29;20029;-90
2020/12/22 02:56:57;;;;;;;15.10;9.38;;;11.30;95.00;;;;;;4867970;29;20033;-91
2020/12/22 02:59:22;;;;;;;14.82;9.23;;;11.30;95.20;;;;;;4866338;29;20060;-91
2020/12/22 03:01:48;;;;;;;16.70;9.48;;;11.30;95.10;;;;;;4867302;29;20085;-90
2020/12/22 03:04:13;;;;;;;15.65;9.88;;;11.30;94.90;;;;;;4866899;29;20025;-91
2020/12/22 03:06:39;;;;;;;14.70;9.23;;;11.40;95.10;;;;;;4867386;29;20068;-91
2020/12/22 03:09:06;;;;;;;15.80;9.20;;;11.40;94.80;;;;;;4868165;29;20033;-91
2020/12/22 03:11:32;;;;;;;17.75;9.50;;;11.40;94.90;;;;;;4867802;29;20033;-91
2020/12/22 03:13:58;;;;;;;15.45;9.63;;;11.50;95.20;;;;;;4867338;29;20522;-90
2020/12/22 03:16:23;;;;;;;15.93;10.43;;;11.40;94.90;;;;;;4867250;29;20025;-90
2020/12/22 03:18:49;;;;;;;15.52;8.10;;;11.50;96.70;;;;;;4867952;29;20052;-91
2020/12/22 03:21:16;;;;;;;14.20;8.70;;;11.50;95.00;;;;;;4867309;29;20025;-90
2020/12/22 03:23:42;;;;;;;12.50;7.20;;;11.50;94.90;;;;;;4867366;29;20029;-90
2020/12/22 03:26:07;;;;;;;12.95;7.47;;;11.60;95.10;;;;;;4866460;29;20031;-91
2020/12/22 03:28:33;;;;;;;11.95;6.40;;;11.60;94.90;;;;;;4866463;29;20065;-91
2020/12/22 03:30:58;;;;;;;13.48;7.10;;;11.60;95.10;;;;;;4866735;29;20041;-91
2020/12/22 03:33:24;;;;;;;10.55;5.43;;;11.60;95.00;;;;;;4866903;29;20071;-90
2020/12/22 03:35:53;;;;;;;10.80;5.88;;;11.60;95.00;;;;;;4867485;29;20109;-90
2020/12/22 03:38:18;;;;;;;10.75;6.18;;;11.70;95.10;;;;;;4866926;29;20040;-91
2020/12/22 03:40:44;;;;;;;11.98;6.63;;;11.70;94.90;;;;;;4867308;29;20033;-91
2020/12/22 03:43:10;;;;;;;11.95;6.43;;;11.80;95.60;;;;;;4867647;29;20604;-91
2020/12/22 03:45:38;;;;;;;11.85;6.63;;;11.80;95.10;;;;;;4866591;29;20076;-91
2020/12/22 03:48:04;;;;;;;14.20;6.80;;;11.80;95.30;;;;;;4867066;29;20056;-91
2020/12/22 03:50:30;;;;;;;12.07;6.25;;;11.80;94.90;;;;;;4866766;29;20096;-91
2020/12/22 03:52:59;;;;;;;9.60;5.00;;;11.80;95.30;;;;;;4867352;29;20487;-91
2020/12/22 03:55:25;;;;;;;9.05;4.65;;;11.80;95.00;;;;;;4866954;29;20491;-91
2020/12/22 03:57:50;;;;;;;7.88;4.35;;;11.90;95.00;;;;;;4866318;29;20128;-91
2020/12/22 04:00:16;;;;;;;9.00;4.35;;;11.90;95.20;;;;;;4866759;29;20029;-91
2020/12/22 04:02:42;;;;;;;10.32;4.32;;;12.00;95.50;;;;;;4866515;29;20025;-92
2020/12/22 04:05:08;;;;;;;7.85;4.28;;;12.00;95.10;;;;;;4865004;29;20403;-91
2020/12/22 04:07:33;;;;;;;9.73;4.05;;;12.10;94.90;;;;;;4866061;29;20040;-91
2020/12/22 04:09:59;;;;;;;7.53;4.47;;;12.10;94.80;;;;;;4866939;29;20029;-91
2020/12/22 04:12:25;;;;;;;7.28;3.97;;;12.10;95.00;;;;;;4866536;29;20029;-90
2020/12/22 04:14:50;;;;;;;6.32;3.90;;;12.10;95.10;;;;;;4866662;29;20411;-91
2020/12/22 04:17:16;;;;;;;8.73;3.90;;;12.10;95.00;;;;;;4866530;29;20032;-91
2020/12/22 04:19:42;;;;;;;7.05;3.92;;;12.10;95.00;;;;;;4867021;29;20550;-92
2020/12/22 04:22:07;;;;;;;6.53;3.38;;;12.10;95.00;;;;;;4866656;29;20043;-91
2020/12/22 04:24:33;;;;;;;5.90;3.20;;;12.20;95.20;;;;;;4866395;29;20029;-91
2020/12/22 04:26:58;;;;;;;7.10;3.00;;;12.20;95.00;;;;;;4865729;29;20029;-92
2020/12/22 04:29:24;;;;;;;6.80;3.08;;;12.20;95.00;;;;;;4866124;29;20033;-90
2020/12/22 04:31:50;;;;;;;6.40;2.90;;;12.20;95.10;;;;;;4866627;29;20049;-91
2020/12/22 04:34:15;;;;;;;5.22;2.55;;;12.30;95.20;;;;;;4866470;29;20031;-91
2020/12/22 04:36:41;;;;;;;4.68;2.55;;;12.30;95.10;;;;;;4866940;29;20029;-91
2020/12/22 04:39:06;;;;;;;5.75;2.33;;;12.30;95.30;;;;;;4865581;29;20033;-91
2020/12/22 04:41:35;;;;;;;5.25;2.22;;;12.30;95.20;;;;;;4865423;29;20371;-91
2020/12/22 04:44:01;;;;;;;7.47;2.60;;;12.30;95.20;;;;;;4866785;29;20033;-91
2020/12/22 04:46:28;;;;;;;4.78;2.05;;;12.30;95.30;;;;;;4866092;29;20474;-91
2020/12/22 04:48:55;;;;;;;5.55;2.50;;;12.40;95.60;;;;;;4866090;29;20064;-91
2020/12/22 04:51:22;;;;;;;3.90;2.33;;;12.40;95.70;;;;;;4866382;29;20124;-91
2020/12/22 04:53:48;;;;;;;4.55;2.30;;;12.40;95.50;;;;;;4865863;29;20539;-91
2020/12/22 04:56:14;;;;;;;3.70;2.22;;;12.40;95.50;;;;;;4866318;29;20033;-91
2020/12/22 04:58:40;;;;;;;3.90;2.00;;;12.40;95.50;;;;;;4866369;29;20059;-91
2020/12/22 05:01:06;;;;;;;4.88;2.28;;;12.40;95.50;;;;;;4866253;29;20036;-91
2020/12/22 05:03:32;;;;;;;4.10;2.10;;;12.40;95.40;;;;;;4866525;29;20021;-91
2020/12/22 05:05:57;;;;;;;4.38;2.03;;;12.50;96.00;;;;;;4867186;29;20084;-91
2020/12/22 05:08:23;;;;;;;4.68;2.00;;;12.50;95.60;;;;;;4866374;29;20032;-92
2020/12/22 05:10:50;;;;;;;3.53;1.92;;;12.50;95.60;;;;;;4866313;29;20432;-91
2020/12/22 05:13:17;;;;;;;3.45;1.90;;;12.50;95.80;;;;;;4865917;29;20029;-91
2020/12/22 05:15:46;;;;;;;2.78;1.70;;;12.50;95.60;;;;;;4866469;29;20115;-90
2020/12/22 05:18:12;;;;;;;3.10;1.70;;;12.50;95.60;;;;;;4865410;29;20025;-91
2020/12/22 05:20:41;;;;;;;2.40;1.60;;;12.50;95.60;;;;;;4865013;29;20037;-91
2020/12/22 05:23:17;;;;;;;2.65;1.20;;;12.40;95.50;;;;;;4868534;29;20025;-91
2020/12/22 05:25:44;;;;;;;1.60;0.88;;;12.50;96.00;;;;;;4869595;29;20069;-90
2020/12/22 05:28:14;;;;;;;3.30;0.93;;;12.40;95.50;;;;;;4869795;29;20037;-90
2020/12/22 05:30:40;;;;;;;1.17;0.82;;;12.50;95.50;;;;;;4869626;29;20053;-91
2020/12/22 05:33:05;;;;;;;0.60;0.60;;;12.50;95.60;;;;;;4870254;29;20092;-91
2020/12/22 05:35:36;;;;;;;0.80;0.70;;;12.50;95.40;;;;;;4870812;29;20403;-91
2020/12/22 05:38:03;;;;;;;3.08;1.00;;;12.40;95.30;;;;;;4873746;29;20037;-91
2020/12/22 05:40:29;;;;;;;1.85;1.02;;;12.50;95.40;;;;;;4891623;29;20028;-92
2020/12/22 05:42:57;;;;;;;2.15;0.70;;;12.50;95.50;;;;;;4891261;29;20024;-91
2020/12/22 05:45:23;;;;;;;0.70;0.70;;;12.50;95.60;;;;;;4891593;29;20049;-92
2020/12/22 05:47:53;;;;;;;2.35;0.90;;;12.50;95.40;;;;;;4891113;29;20041;-91
2020/12/22 05:50:20;;;;;;;1.20;0.63;;;12.50;95.70;;;;;;4875002;29;20037;-91
2020/12/22 05:52:46;;;;;;;0.70;0.70;;;12.50;95.50;;;;;;4869801;29;20040;-91
2020/12/22 05:55:12;;;;;;;1.30;0.60;;;12.50;95.40;;;;;;4869723;29;20033;-91
2020/12/22 05:57:37;;;;;;;1.85;0.77;;;12.50;95.40;;;;;;4869642;29;20033;-91
2020/12/22 06:00:14;;;;;;;2.67;0.88;;;12.40;95.40;;;;;;4869958;29;20037;-91
2020/12/22 06:02:41;;;;;;;0.57;0.57;;;12.50;95.90;;;;;;4869658;29;20029;-91
2020/12/22 06:05:07;;;;;;;2.15;0.70;;;12.40;95.50;;;;;;4869677;29;20399;-91
2020/12/22 06:07:33;;;;;;;0.82;0.65;;;12.40;95.40;;;;;;4869140;29;20491;-91
2020/12/22 06:09:58;;;;;;;1.95;0.60;;;12.50;95.40;;;;;;4869468;29;20081;-91
2020/12/22 06:12:24;;;;;;;1.05;0.60;;;12.50;95.50;;;;;;4868985;29;20054;-91
2020/12/22 06:14:52;;;;;;;1.95;0.85;;;12.50;95.60;;;;;;4869261;29;20534;-91
2020/12/22 06:17:19;;;;;;;0.68;0.68;;;12.50;95.60;;;;;;4869092;29;20033;-91
2020/12/22 06:19:46;;;;;;;0.95;0.80;;;12.50;95.50;;;;;;4869032;29;20029;-91
2020/12/22 06:22:18;;;;;;;2.03;1.10;;;12.50;95.40;;;;;;4869233;29;20112;-92
2020/12/22 06:24:45;;;;;;;0.70;0.70;;;12.50;95.40;;;;;;4869870;29;20056;-91
2020/12/22 06:27:13;;;;;;;1.38;0.85;;;12.50;95.70;;;;;;4870129;29;20081;-91
2020/12/22 06:29:44;;;;;;;1.42;1.00;;;12.50;95.50;;;;;;4869677;29;20606;-91
2020/12/22 06:32:27;;;;;;;0.68;0.68;;;12.50;95.40;;;;;;4869652;29;20045;-91
2020/12/22 06:35:03;;;;;;;0.82;0.75;;;12.50;95.50;;;;;;4869016;29;20124;-91
2020/12/22 06:37:43;;;;;;;1.40;0.90;;;12.60;95.40;;;;;;4869507;29;20505;-91
2020/12/22 06:40:10;;;;;;;1.08;0.90;;;12.60;95.50;;;;;;4869613;29;20040;-91
2020/12/22 06:42:44;;;;;;;1.52;0.93;;;12.60;95.40;;;;;;4870001;29;20396;-91
2020/12/22 06:45:28;;;;;;;1.52;0.80;;;12.60;95.40;;;;;;4869239;29;20029;-91
2020/12/22 06:47:54;;;;;;;2.58;0.75;;;12.70;95.50;;;;;;4869256;29;20033;-91
2020/12/22 06:50:41;;;;;;;1.33;0.70;;;12.70;95.50;;;;;;4868698;29;20560;-91
2020/12/22 06:53:27;;;;;;;1.92;0.70;;;12.70;95.30;;;;;;4869811;29;20039;-91
2020/12/22 06:55:54;;;;;;;2.08;0.80;;;12.70;95.30;;;;;;4868502;29;20516;-91
2020/12/22 06:58:39;;;;;;;0.70;0.60;;;12.70;95.10;;;;;;4869010;29;20379;-92
2020/12/22 07:01:26;;;;;;;3.75;0.68;;;12.70;95.30;;;;;;4869975;29;20021;-91
2020/12/22 07:03:52;;;;;;;2.03;0.70;;;12.80;95.10;;;;;;4869478;29;20032;-82
2020/12/22 07:07:02;;;;;;;4.13;0.90;;;12.70;95.10;;;;;;4884414;29;20108;-81
2020/12/22 07:09:33;;;;;;;1.92;0.55;;;12.70;95.00;;;;;;4827371;29;20612;-81
2020/12/22 07:12:11;;;;;;;2.63;0.98;;;12.70;95.00;;;;;;4869655;29;20037;-77
2020/12/22 07:14:49;;;;;;;1.35;0.60;;;12.70;95.00;;;;;;4887221;29;20035;-78
2020/12/22 07:17:22;;;;;;;2.37;0.80;;;12.70;94.90;;;;;;4875506;29;20187;-79
2020/12/22 07:19:53;;;;;;;3.70;0.80;;;12.70;94.80;;;;;;4893381;29;20085;-78
2020/12/22 07:22:19;;;;;;;2.20;0.85;;;12.70;94.80;;;;;;4891199;29;20035;-80
2020/12/22 07:24:44;;;;;;;4.57;1.00;;;12.70;94.90;;;;;;4892359;29;20402;-79
2020/12/22 07:27:11;;;;;;;4.43;1.00;;;12.70;94.80;;;;;;4907942;29;20035;-80
2020/12/22 07:29:38;;;;;;;3.15;0.90;;;12.70;94.90;;;;;;4907147;29;20051;-80
2020/12/22 07:32:04;;;;;;;3.83;1.00;;;12.70;94.80;;;;;;4900167;29;20048;-80
2020/12/22 07:34:31;;;;;;;2.88;0.98;;;12.70;94.70;;;;;;4905037;29;20085;-79
2020/12/22 07:37:08;;;;;;;4.80;1.08;;;12.70;94.70;;;;;;4888684;29;20032;-79
2020/12/22 07:39:34;;;;;;;4.57;1.00;;;12.70;94.70;;;;;;4890199;29;20487;-80
2020/12/22 07:42:14;;;;;;;3.83;1.00;;;12.80;94.70;;;;;;4886599;29;20093;-79
2020/12/22 07:44:41;;;;;;;3.13;1.00;;;12.80;94.70;;;;;;4885648;29;20033;-80
2020/12/22 07:47:08;;;;;;;3.75;1.10;;;12.70;94.60;;;;;;4886917;29;20033;-78
2020/12/22 07:49:34;;;;;;;6.97;1.30;;;12.80;94.50;;;;;;4888173;29;20036;-78
2020/12/22 07:52:00;;;;;;;4.18;1.17;;;12.80;94.50;;;;;;4887625;29;20025;-80
2020/12/22 07:54:28;;;;;;;6.85;1.60;;;12.80;94.50;;;;;;4886014;29;20063;-80
2020/12/22 07:56:58;;;;;;;7.47;1.37;;;12.80;94.50;;;;;;4885135;29;20033;-79
2020/12/22 07:59:24;;;;;;;4.70;1.40;;;12.80;94.50;;;;;;4887846;29;20317;-81
2020/12/22 08:01:50;;;;;;;8.88;2.28;;;12.80;94.50;;;;;;4882003;29;20031;-82
2020/12/22 08:04:22;;;;;;;4.55;1.60;;;12.90;94.30;;;;;;4886814;29;20081;-80
2020/12/22 08:07:06;;;;;;;7.38;1.67;;;12.90;94.30;;;;;;4888152;29;20104;-79
2020/12/22 08:09:34;;;;;;;6.18;1.80;;;12.90;94.40;;;;;;4888147;29;20479;-78
2020/12/22 08:12:06;;;;;;;5.30;1.90;;;12.90;94.30;;;;;;4886082;29;20040;-90
2020/12/22 08:14:37;;;;;;;4.80;1.92;;;12.90;94.30;;;;;;4866667;29;20105;-89
2020/12/22 08:17:08;;;;;;;7.40;2.17;;;12.90;94.30;;;;;;4866676;29;20089;-89
2020/12/22 08:19:38;;;;;;;8.55;2.20;;;12.90;94.20;;;;;;4865446;29;20029;-89
2020/12/22 08:22:04;;;;;;;4.10;1.95;;;12.90;94.30;;;;;;4866531;29;20029;-90
2020/12/22 08:24:35;;;;;;;7.43;2.40;;;12.90;94.20;;;;;;4865466;29;20443;-89
2020/12/22 08:27:00;;;;;;;6.35;2.28;;;12.90;94.30;;;;;;4866066;29;20055;-89
2020/12/22 08:29:28;;;;;;;9.45;2.30;;;12.90;94.30;;;;;;4865349;29;20028;-89
2020/12/22 08:32:02;;;;;;;7.78;2.72;;;12.90;94.40;;;;;;4865470;29;20538;-89
2020/12/22 08:34:29;;;;;;;6.88;2.50;;;12.80;94.60;;;;;;4866273;29;20162;-89
2020/12/22 08:36:55;;;;;;;8.70;2.75;;;12.90;94.40;;;;;;4864945;29;20029;-90
2020/12/22 08:39:26;;;;;;;6.53;2.75;;;12.90;94.40;;;;;;4865658;29;20033;-89
2020/12/22 08:41:57;;;;;;;8.07;2.92;;;12.80;94.40;;;;;;4867483;29;20081;-89
2020/12/22 08:44:25;;;;;;;8.05;3.05;;;12.80;94.40;;;;;;4866444;29;20025;-89
2020/12/22 08:46:52;;;;;;;6.75;2.80;;;12.80;94.50;;;;;;4866940;29;20025;-89
2020/12/22 08:49:26;;;;;;;9.95;3.00;;;12.80;94.50;;;;;;4866304;29;20036;-86
2020/12/22 08:51:56;;;;;;;9.95;3.22;;;12.80;94.50;;;;;;4869796;29;20487;-89
2020/12/22 08:54:26;;;;;;;8.57;2.47;;;12.80;94.50;;;;;;4864662;29;20025;-90
2020/12/22 08:56:51;;;;;;;6.25;2.42;;;12.80;94.50;;;;;;4863735;29;20036;-90
2020/12/22 08:59:27;;;;;;;6.90;2.60;;;12.80;94.40;;;;;;4877739;29;20024;-91
2020/12/22 09:01:53;;;;;;;6.10;2.53;;;12.80;94.40;;;;;;4883660;29;20080;-90
2020/12/22 09:04:30;;;;;;;5.75;2.50;;;12.80;94.40;;;;;;4883760;29;20028;-91
2020/12/22 09:06:57;;;;;;;6.88;2.58;;;12.80;94.40;;;;;;4864671;29;20028;-90
2020/12/22 09:09:27;;;;;;;5.45;2.17;;;12.80;94.30;;;;;;4865060;29;20116;-90
2020/12/22 09:12:03;;;;;;;8.18;2.42;;;12.90;94.20;;;;;;4865250;29;20056;-89
2020/12/22 09:14:38;;;;;;;7.18;2.35;;;12.90;94.20;;;;;;4864486;29;20033;-90
2020/12/22 09:17:04;;;;;;;6.53;2.33;;;12.90;94.10;;;;;;4864192;29;20464;-90
2020/12/22 09:19:47;;;;;;;5.90;2.42;;;12.90;94.10;;;;;;4865838;29;20033;-89
2020/12/22 09:22:13;;;;;;;8.90;2.35;;;12.90;94.10;;;;;;4864281;29;20025;-90
2020/12/22 09:24:39;;;;;;;6.85;2.22;;;13.00;94.10;;;;;;4882588;29;20028;-90
2020/12/22 09:27:08;;;;;;;6.47;2.20;;;13.00;94.00;;;;;;4883313;29;20111;-90
2020/12/22 09:29:39;;;;;;;7.97;2.20;;;13.00;94.00;;;;;;4883955;29;20033;-90
2020/12/22 09:32:07;;;;;;;8.70;2.35;;;13.10;93.70;;;;;;4882837;29;20114;-89
2020/12/22 09:34:34;;;;;;;4.68;1.80;;;13.10;93.70;;;;;;4882833;29;20073;-89
2020/12/22 09:37:03;;;;;;;4.20;1.85;;;13.10;93.70;;;;;;4883221;29;20041;-89
2020/12/22 09:39:30;;;;;;;4.82;1.73;;;13.20;93.60;;;;;;4899507;29;20402;-89
2020/12/22 09:41:56;;;;;;;6.90;1.58;;;13.20;93.40;;;;;;4900045;29;20116;-89
2020/12/22 09:44:22;;;;;;;3.20;1.52;;;13.20;93.20;;;;;;4883159;29;20056;-90
2020/12/22 09:46:50;;;;;;;4.90;1.60;;;13.30;93.10;;;;;;4883926;29;20028;-89
2020/12/22 09:49:16;;;;;;;4.00;1.52;;;13.40;93.10;;;;;;4898973;29;20108;-90
2020/12/22 09:51:42;;;;;;;4.68;1.20;;;13.40;93.10;;;;;;4883076;29;20033;-89
2020/12/22 09:54:08;;;;;;;5.97;1.42;;;13.40;92.80;;;;;;4882638;29;20537;-89
2020/12/22 09:56:33;;;;;;;4.35;1.08;;;13.40;92.90;;;;;;4882969;29;20032;-89
2020/12/22 09:58:59;;;;;;;4.95;1.30;;;13.40;92.60;;;;;;4882897;29;20033;-90
2020/12/22 10:01:26;;;;;;;4.80;1.27;;;13.40;92.70;;;;;;4883324;29;20471;-90
2020/12/22 10:03:51;;;;;;;5.80;1.30;;;13.40;92.70;;;;;;4882869;29;20550;-89
2020/12/22 10:06:18;;;;;;;3.83;1.10;;;13.40;92.50;;;;;;4883038;29;20024;-89
2020/12/22 10:08:44;;;;;;;6.55;1.40;;;13.40;92.50;;;;;;4885321;29;20052;-89
2020/12/22 10:11:11;;;;;;;4.72;1.20;;;13.40;92.50;;;;;;4886099;29;20371;-89
2020/12/22 10:13:37;;;;;;;4.15;1.20;;;13.40;92.40;;;;;;4886668;29;20028;-89
2020/12/22 10:16:10;;;;;;;4.07;1.20;;;13.40;92.50;;;;;;4886804;29;20036;-90
2020/12/22 10:18:36;;;;;;;5.03;1.30;;;13.40;92.40;;;;;;4886108;29;20036;-90
2020/12/22 10:21:16;;;;;;;6.05;1.33;;;13.40;92.60;;;;;;4886481;29;20545;-90
2020/12/22 10:23:43;;;;;;;6.05;1.17;;;13.30;92.70;;;;;;4885959;29;20025;-89
2020/12/22 10:26:14;;;;;;;4.78;1.35;;;13.30;92.80;;;;;;4886080;29;20027;-90
2020/12/22 10:28:42;;;;;;;6.68;1.40;;;13.20;93.00;;;;;;4885899;29;20083;-91
2020/12/22 10:31:15;;;;;;;3.22;1.38;;;13.10;93.10;;;;;;4885123;29;20048;-90
2020/12/22 10:33:41;;;;;;;7.82;1.83;;;13.10;93.50;;;;;;4885926;29;20100;-90
2020/12/22 10:36:11;;;;;;;6.70;1.55;;;13.00;93.40;;;;;;4883455;29;20044;-90
2020/12/22 10:38:36;;;;;;;;;;;12.90;93.50;;;;;;4868054;29;20036;-90
2020/12/22 10:41:02;;;;;;;7.35;1.58;;;12.90;93.70;;;;;;4866840;29;19911;-90
2020/12/22 10:43:28;;;;;;;5.22;1.60;;;12.80;93.70;;;;;;4867080;29;20112;-89
2020/12/22 10:45:53;;;;;;;8.05;1.50;;;12.70;93.80;;;;;;4866868;29;20123;-91
2020/12/22 10:48:19;;;;;;;6.30;1.58;;;12.70;93.90;;;;;;4867859;29;20032;-90
2020/12/22 10:50:44;;;;;;;5.43;1.27;;;12.70;94.00;;;;;;4867189;29;20036;-90
2020/12/22 10:53:10;;;;;;;5.20;1.42;;;12.70;94.00;;;;;;4866873;29;20029;-91
2020/12/22 10:55:35;;;;;;;6.10;1.80;;;12.60;94.10;;;;;;4885818;29;20009;-90
2020/12/22 10:58:02;;;;;;;5.65;1.30;;;12.60;94.20;;;;;;4889191;29;20033;-90
2020/12/22 11:00:28;;;;;;;7.70;1.50;;;12.60;94.20;;;;;;4889527;29;20025;-91
2020/12/22 11:02:55;;;;;;;6.15;1.65;;;12.60;94.20;;;;;;4888046;29;20051;-90
2020/12/22 11:08:12;;;;;;;6.22;1.70;;;12.60;94.30;;;;;;4861304;29;20135;-89
2020/12/22 11:10:39;;;;;;;8.43;1.85;;;12.60;94.30;;;;;;4867243;29;20048;-90
2020/12/22 11:13:04;;;;;;;8.90;1.75;;;12.60;94.30;;;;;;4865861;29;20033;-90
2020/12/22 11:15:31;;;;;;;5.28;1.80;;;12.60;94.20;;;;;;4866341;29;20372;-90
2020/12/22 11:17:56;;;;;;;8.98;2.00;;;12.60;94.30;;;;;;4865813;29;20048;-90
2020/12/22 11:20:22;;;;;;;9.52;1.80;;;12.60;94.30;;;;;;4865264;29;20472;-90
2020/12/22 11:22:48;;;;;;;7.65;1.60;;;12.60;94.30;;;;;;4866457;29;20029;-90
2020/12/22 11:25:15;;;;;;;8.70;2.65;;;12.50;94.30;;;;;;4865081;29;20033;-90
2020/12/22 11:27:41;;;;;;;10.18;2.25;;;12.50;94.30;;;;;;4865583;29;20055;-90
2020/12/22 11:30:07;;;;;;;8.18;1.95;;;12.50;94.40;;;;;;4865443;29;20060;-90
2020/12/22 11:32:33;;;;;;;7.13;1.95;;;12.50;94.40;;;;;;4866422;29;20029;-89
2020/12/22 11:34:59;;;;;;;10.32;2.35;;;12.50;94.30;;;;;;4867396;29;20033;-90
2020/12/22 11:37:27;;;;;;;8.38;1.98;;;12.50;94.30;;;;;;4865517;29;20067;-90
2020/12/22 11:39:53;;;;;;;9.75;2.20;;;12.50;94.30;;;;;;4865271;29;20041;-89
2020/12/22 11:42:19;;;;;;;10.80;2.08;;;12.50;94.40;;;;;;4865620;29;20344;-89
2020/12/22 11:44:45;;;;;;;10.23;2.17;;;12.50;94.30;;;;;;4866298;29;20106;-90
2020/12/22 11:47:10;;;;;;;8.32;1.88;;;12.50;94.40;;;;;;4866487;29;20082;-89
2020/12/22 11:49:36;;;;;;;8.13;1.80;;;12.50;94.30;;;;;;4866194;29;20085;-89
2020/12/22 11:52:01;;;;;;;6.97;1.52;;;12.50;94.40;;;;;;4866611;29;20068;-89
2020/12/22 11:54:27;;;;;;;8.43;1.67;;;12.50;94.50;;;;;;4866760;29;20100;-89
2020/12/22 11:56:53;;;;;;;5.45;1.42;;;12.40;94.50;;;;;;4865901;29;20040;-89
2020/12/22 11:59:19;;;;;;;5.78;1.60;;;12.40;94.60;;;;;;4866544;29;20036;-89
2020/12/22 12:01:45;;;;;;;7.18;1.38;;;12.40;94.60;;;;;;4866618;29;20494;-89
2020/12/22 12:04:11;;;;;;;3.67;1.50;;;12.30;94.70;;;;;;4864998;29;20029;-88
2020/12/22 12:06:37;;;;;;;5.10;1.05;;;12.30;94.80;;;;;;4866146;29;20112;-89
2020/12/22 12:09:05;;;;;;;5.80;1.30;;;12.30;95.00;;;;;;4865919;29;20071;-89
2020/12/22 12:11:31;;;;;;;9.18;1.70;;;12.30;94.80;;;;;;4866191;29;20029;-89
2020/12/22 12:13:56;;;;;;;6.10;1.90;;;12.20;94.90;;;;;;4866017;29;20035;-90
2020/12/22 12:16:22;;;;;;;6.95;1.30;;;12.20;94.90;;;;;;4866846;29;20052;-89
2020/12/22 12:18:47;;;;;;;7.70;1.60;;;12.30;94.90;;;;;;4865956;29;20025;-89
2020/12/22 12:21:15;;;;;;;11.98;4.13;;;12.30;94.80;;;;;;4865841;29;20025;-89
2020/12/22 12:23:41;;;;;;;12.75;3.53;;;12.30;94.80;;;;;;4865685;29;20039;-89
2020/12/22 12:26:07;;;;;;;9.70;2.78;;;12.30;94.80;;;;;;4866465;29;20097;-89
2020/12/22 13:01:38;;;;;;;5.68;1.60;;;12.00;94.80;;;;;;4881408;29;20083;-88
2020/12/22 13:04:04;;;;;;;5.18;1.70;;;12.00;94.80;;;;;;4864079;29;20033;-88
2020/12/22 13:06:30;;;;;;;5.70;1.83;;;11.90;94.90;;;;;;4864695;29;20040;-87
2020/12/22 13:08:55;;;;;;;7.00;1.88;;;11.90;94.90;;;;;;4864874;29;20109;-88
2020/12/22 13:11:21;;;;;;;7.70;2.00;;;11.90;94.90;;;;;;4881068;29;20387;-88
2020/12/22 13:13:47;;;;;;;7.43;2.03;;;11.90;94.90;;;;;;4863618;29;20033;-87
2020/12/22 13:16:12;;;;;;;11.10;2.67;;;11.90;94.90;;;;;;4880778;29;20041;-88
2020/12/22 13:18:38;;;;;;;6.40;2.22;;;11.90;94.90;;;;;;4864239;29;20041;-87
2020/12/22 13:21:04;;;;;;;9.60;2.30;;;11.90;94.90;;;;;;4864248;29;20072;-88
2020/12/22 13:23:30;;;;;;;5.57;1.90;;;11.90;94.90;;;;;;4863969;29;20022;-87